Disclaimer

Please do not use the information listed here in-flight or in-navigation, as they are not provided to us by the airports but are provided by volunteers, so they might be outdated.

Search


Regions


Airport information page

Radio informations:
ST DIZIER TWR - 138.925 MHz
Ground (GND) - 122.1 MHz
ST DIZIER APP - 142.45 MHz

Airport informations:
Latitude: 48° 38' 09.63" N
Longitude: 004° 53' 57.90" E
Elevation: 458 feet - 140 meters
Operating hours: Remarks
Operating agency: Military
Timezone: UTC+1(+2DT) - Last Sunday in March to last Sunday in October
Fuel: Jet A1+, Jet A1 with icing inhibitor.

Runway information:
11/29 - 7913 x 148 feet< - >2412 x 45 meters

Recent METARs:
LFSI 201400Z AUTO 10012KT 9000 BKN027 BKN035 OVC068 04/M01 Q1002
LFSI 201430Z AUTO 10009KT 8000 -RA OVC026/// ///TCU 03/M00 Q1002
LFSI 201500Z AUTO 12010KT 5000 -RA BR BKN016/// OVC024/// ///TCU 03/00 Q1002

Airport on the map: